createdAt,value
2022-10-13T00:01:25.965Z,97.28
2022-10-13T00:03:54.659Z,97.05
2022-10-13T00:06:28.505Z,96.94
2022-10-13T00:08:56.821Z,96.91
2022-10-13T00:11:28.188Z,96.92
2022-10-13T00:13:58.695Z,97.30
2022-10-13T00:16:31.063Z,97.60
2022-10-13T00:18:59.786Z,98.26
2022-10-13T00:21:28.565Z,98.48
2022-10-13T00:23:56.819Z,98.48
2022-10-13T00:26:26.461Z,98.23
2022-10-13T00:28:56.748Z,98.19
2022-10-13T00:31:28.010Z,98.53
2022-10-13T00:33:57.587Z,99.23
2022-10-13T00:36:26.298Z,99.83
2022-10-13T00:38:54.856Z,100.00
2022-10-13T00:41:23.372Z,100.00
2022-10-13T00:43:58.875Z,100.00
2022-10-13T00:46:35.744Z,100.00
2022-10-13T00:49:09.862Z,100.00
2022-10-13T00:51:45.409Z,100.00
2022-10-13T00:54:18.297Z,100.00
2022-10-13T00:56:47.600Z,99.98
2022-10-13T00:59:23.327Z,99.88
2022-10-13T01:01:56.169Z,99.97
2022-10-13T01:04:28.453Z,100.00
2022-10-13T01:06:58.220Z,100.00
2022-10-13T01:09:26.869Z,100.00
2022-10-13T01:12:16.256Z,100.00
2022-10-13T01:14:52.974Z,100.00
2022-10-13T01:17:44.635Z,100.00
2022-10-13T01:20:28.234Z,100.00
2022-10-13T01:23:06.791Z,100.00
2022-10-13T01:26:18.436Z,100.00
2022-10-13T01:29:37.619Z,100.00
2022-10-13T01:32:25.145Z,100.00
2022-10-13T01:35:01.276Z,100.00
2022-10-13T01:37:42.659Z,100.00
2022-10-13T01:40:25.110Z,100.00
2022-10-13T01:43:04.536Z,100.00
2022-10-13T01:45:47.508Z,100.00
2022-10-13T01:48:17.646Z,100.00
2022-10-13T01:50:51.909Z,100.00
2022-10-13T01:53:21.386Z,100.00
2022-10-13T01:55:58.341Z,100.00
2022-10-13T01:58:34.307Z,100.00
2022-10-13T02:01:05.511Z,100.00
2022-10-13T02:03:45.281Z,100.00
2022-10-13T02:06:53.378Z,100.00
2022-10-13T02:09:21.582Z,100.00
2022-10-13T02:11:58.559Z,100.00
2022-10-13T02:14:33.075Z,100.00
2022-10-13T02:17:04.163Z,100.00
2022-10-13T02:19:38.266Z,100.00
2022-10-13T02:22:08.547Z,100.00
2022-10-13T02:24:36.699Z,100.00
2022-10-13T02:27:06.861Z,100.00
2022-10-13T02:29:48.249Z,100.00
2022-10-13T02:32:18.192Z,100.00
2022-10-13T02:34:46.740Z,100.00
2022-10-13T02:37:14.843Z,100.00
2022-10-13T02:39:44.985Z,100.00
2022-10-13T02:42:13.152Z,100.00
2022-10-13T02:44:41.306Z,100.00
2022-10-13T02:47:09.576Z,100.00
2022-10-13T02:49:37.668Z,100.00
2022-10-13T02:52:05.844Z,100.00
2022-10-13T02:54:33.896Z,100.00
2022-10-13T02:57:01.908Z,100.00
2022-10-13T02:59:30.740Z,100.00
2022-10-13T03:01:58.560Z,100.00
2022-10-13T03:04:27.175Z,100.00
2022-10-13T03:06:56.156Z,100.00
2022-10-13T03:09:24.300Z,100.00
2022-10-13T03:11:52.541Z,100.00
2022-10-13T03:14:20.576Z,100.00
2022-10-13T03:16:48.740Z,100.00
2022-10-13T03:19:17.183Z,100.00
2022-10-13T03:21:45.440Z,100.00
2022-10-13T03:24:13.413Z,100.00
2022-10-13T03:26:41.403Z,100.00
2022-10-13T03:29:16.694Z,100.00
2022-10-13T03:31:45.037Z,100.00
2022-10-13T03:34:15.384Z,100.00
2022-10-13T03:36:43.570Z,100.00
2022-10-13T03:39:14.159Z,100.00
2022-10-13T03:41:42.204Z,100.00
2022-10-13T03:44:13.987Z,100.00
2022-10-13T03:46:42.292Z,100.00
2022-10-13T03:49:11.801Z,100.00
2022-10-13T03:51:40.019Z,100.00
2022-10-13T03:54:11.915Z,100.00
2022-10-13T03:56:41.099Z,100.00
2022-10-13T03:59:12.536Z,100.00
2022-10-13T04:01:40.847Z,100.00
2022-10-13T04:04:11.490Z,100.00
2022-10-13T04:06:42.826Z,100.00
2022-10-13T04:09:11.114Z,100.00
2022-10-13T04:11:39.277Z,100.00
2022-10-13T04:14:07.636Z,100.00
2022-10-13T04:16:35.688Z,100.00
2022-10-13T04:19:06.418Z,100.00
2022-10-13T04:21:35.519Z,100.00
2022-10-13T04:24:04.801Z,100.00
2022-10-13T04:26:35.989Z,100.00
2022-10-13T04:29:12.051Z,100.00
2022-10-13T04:31:42.895Z,100.00
2022-10-13T04:34:12.250Z,100.00
2022-10-13T04:36:40.408Z,100.00
2022-10-13T04:39:08.608Z,100.00
2022-10-13T04:41:36.723Z,100.00
2022-10-13T04:44:04.736Z,100.00
2022-10-13T04:46:32.825Z,100.00
2022-10-13T04:49:00.917Z,100.00
2022-10-13T04:51:33.339Z,100.00
2022-10-13T04:54:02.818Z,100.00
2022-10-13T04:56:31.435Z,100.00
2022-10-13T04:59:06.092Z,100.00
2022-10-13T05:01:36.086Z,100.00
2022-10-13T05:04:07.671Z,100.00
2022-10-13T05:06:58.926Z,100.00
2022-10-13T05:09:28.292Z,100.00
2022-10-13T05:11:57.457Z,100.00
2022-10-13T05:14:25.537Z,100.00
2022-10-13T05:16:57.578Z,100.00
2022-10-13T05:19:28.514Z,100.00
2022-10-13T05:21:57.271Z,100.00
2022-10-13T05:24:36.518Z,100.00
2022-10-13T05:27:06.880Z,100.00
2022-10-13T05:29:35.015Z,100.00
2022-10-13T05:32:04.123Z,100.00
2022-10-13T05:34:32.871Z,100.00
2022-10-13T05:37:01.157Z,100.00
2022-10-13T05:39:29.280Z,100.00
2022-10-13T05:41:57.790Z,100.00
2022-10-13T05:44:26.549Z,100.00
2022-10-13T05:46:54.640Z,100.00
2022-10-13T05:49:23.103Z,100.00
2022-10-13T05:51:55.836Z,100.00
2022-10-13T05:54:31.537Z,100.00
2022-10-13T05:57:06.061Z,100.00
2022-10-13T05:59:39.378Z,100.00
2022-10-13T06:02:09.841Z,100.00
2022-10-13T06:04:41.555Z,100.00
2022-10-13T06:07:10.183Z,100.00
2022-10-13T06:09:40.193Z,100.00
2022-10-13T06:12:09.342Z,100.00
2022-10-13T06:14:38.027Z,100.00
2022-10-13T06:17:08.196Z,100.00
2022-10-13T06:19:36.609Z,100.00
2022-10-13T06:22:08.714Z,100.00
2022-10-13T06:24:36.925Z,100.00
2022-10-13T06:27:06.883Z,100.00
2022-10-13T06:29:35.269Z,99.99
2022-10-13T06:32:03.440Z,100.00
2022-10-13T06:34:31.513Z,100.00
2022-10-13T06:36:59.451Z,100.00
2022-10-13T06:39:27.395Z,100.00
2022-10-13T06:41:55.696Z,100.00
2022-10-13T06:44:32.476Z,100.00
2022-10-13T06:47:05.532Z,100.00
2022-10-13T06:49:33.680Z,100.00
2022-10-13T06:52:01.684Z,100.00
2022-10-13T06:54:31.137Z,100.00
2022-10-13T06:56:59.324Z,100.00
2022-10-13T06:59:27.917Z,100.00
2022-10-13T07:01:55.931Z,99.98
2022-10-13T07:04:25.938Z,99.92
2022-10-13T07:06:56.070Z,99.92
2022-10-13T07:09:24.048Z,99.78
2022-10-13T07:11:52.327Z,99.67
2022-10-13T07:14:20.558Z,99.63
2022-10-13T07:16:49.224Z,99.54
2022-10-13T07:19:17.058Z,99.43
2022-10-13T07:21:44.979Z,99.35
2022-10-13T07:24:13.191Z,99.19
2022-10-13T07:26:41.809Z,98.97
2022-10-13T07:29:10.219Z,98.83
2022-10-13T07:31:52.115Z,98.84
2022-10-13T07:34:20.649Z,98.84
2022-10-13T07:36:49.269Z,98.79
2022-10-13T07:39:17.576Z,98.60
2022-10-13T07:41:51.298Z,98.48
2022-10-13T07:44:23.170Z,98.21
2022-10-13T07:46:51.550Z,98.00
2022-10-13T07:49:20.415Z,98.05
2022-10-13T07:51:53.251Z,97.91
2022-10-13T07:54:27.227Z,97.69
2022-10-13T07:56:56.573Z,97.31
2022-10-13T07:59:28.127Z,97.04
2022-10-13T08:01:56.772Z,96.97
2022-10-13T08:04:32.938Z,96.80
2022-10-13T08:07:03.483Z,96.62
2022-10-13T08:09:32.143Z,96.22
2022-10-13T08:12:02.021Z,96.32
2022-10-13T08:14:32.539Z,96.43
2022-10-13T08:17:01.816Z,96.33
2022-10-13T08:19:30.601Z,95.94
2022-10-13T08:22:00.337Z,95.44
2022-10-13T08:24:31.193Z,95.02
2022-10-13T08:26:59.775Z,94.78
2022-10-13T08:29:28.303Z,94.97
2022-10-13T08:31:57.307Z,95.29
2022-10-13T08:34:25.875Z,94.59
2022-10-13T08:36:56.577Z,94.16
2022-10-13T16:25:48.131Z,80.53
2022-10-13T16:28:16.772Z,80.84
2022-10-13T16:30:45.098Z,82.53
2022-10-13T16:33:13.503Z,83.29
2022-10-13T16:35:47.231Z,84.70
2022-10-13T16:38:20.348Z,85.57
2022-10-13T16:40:55.032Z,84.69
2022-10-13T16:43:24.947Z,84.41
2022-10-13T16:46:03.347Z,85.20
2022-10-13T16:48:35.199Z,86.45
2022-10-13T16:51:10.010Z,86.07
2022-10-13T17:02:44.634Z,86.61
2022-10-13T17:06:46.089Z,86.92
2022-10-13T17:09:19.396Z,87.21
2022-10-13T17:12:24.073Z,86.94
2022-10-13T17:20:25.469Z,87.14
2022-10-13T17:31:10.479Z,86.62
2022-10-13T17:34:15.602Z,86.65
2022-10-13T18:03:16.286Z,88.91
2022-10-13T18:05:47.315Z,88.85
2022-10-13T18:08:40.603Z,88.50
2022-10-13T18:14:57.847Z,90.69
2022-10-13T18:17:42.819Z,90.52
2022-10-13T18:18:12.084Z,89.53
2022-10-13T18:20:32.444Z,90.07
2022-10-13T18:23:07.569Z,90.47
2022-10-13T18:25:51.483Z,90.21
2022-10-13T18:28:34.742Z,90.09
2022-10-13T18:31:18.441Z,89.78
2022-10-13T18:33:51.016Z,89.67
2022-10-13T18:36:28.553Z,89.35
2022-10-13T18:39:08.352Z,89.12
2022-10-13T18:41:42.823Z,90.36
2022-10-13T18:44:30.719Z,90.87
2022-10-13T18:47:02.942Z,91.01
2022-10-13T18:49:35.866Z,90.76
2022-10-13T18:52:10.810Z,90.87
2022-10-13T18:54:41.897Z,91.21
2022-10-13T18:57:11.638Z,91.59
2022-10-13T18:59:43.104Z,92.54
2022-10-13T19:02:18.218Z,92.51
2022-10-13T19:04:50.487Z,92.36
2022-10-13T19:07:19.470Z,92.46
2022-10-13T19:09:56.652Z,92.46
2022-10-13T19:12:26.169Z,92.42
2022-10-13T19:14:55.040Z,92.51
2022-10-13T19:17:47.757Z,92.45
2022-10-13T19:20:38.351Z,92.18
2022-10-13T19:23:13.983Z,91.94
2022-10-13T19:25:51.987Z,91.73
2022-10-13T19:28:24.210Z,91.48
2022-10-13T19:30:55.708Z,91.51
2022-10-13T19:33:26.442Z,92.17
2022-10-13T19:35:57.913Z,92.61
2022-10-13T19:38:29.014Z,92.68
2022-10-13T19:41:24.461Z,92.61
2022-10-13T19:43:55.148Z,93.04
2022-10-13T19:46:25.996Z,93.19
2022-10-13T19:49:09.806Z,93.39
2022-10-13T19:51:43.120Z,93.31
2022-10-13T19:54:14.893Z,93.33
2022-10-13T19:56:52.039Z,93.28
2022-10-13T19:59:21.280Z,93.27
2022-10-13T20:01:56.125Z,93.33
2022-10-13T20:04:27.959Z,93.24
2022-10-13T20:06:57.855Z,93.12
2022-10-13T20:09:27.671Z,93.20
2022-10-13T20:12:11.698Z,93.51
2022-10-13T20:14:43.104Z,93.56
2022-10-13T20:17:13.036Z,94.09
2022-10-13T20:19:44.639Z,95.88
2022-10-13T20:22:19.015Z,95.95
2022-10-13T20:24:49.909Z,95.90
2022-10-13T20:27:23.244Z,95.70
2022-10-13T20:29:55.800Z,95.59
2022-10-13T20:32:26.750Z,95.78
2022-10-13T20:34:59.007Z,95.62
2022-10-13T20:37:29.867Z,95.73
2022-10-13T20:40:12.287Z,95.79
2022-10-13T20:42:41.866Z,95.78
2022-10-13T20:45:14.162Z,95.72
2022-10-13T20:47:43.673Z,95.72
2022-10-13T20:50:12.957Z,95.63
2022-10-13T20:52:42.836Z,95.58
2022-10-13T20:55:20.218Z,95.55
2022-10-13T20:57:54.534Z,95.51
2022-10-13T21:00:31.560Z,95.55
2022-10-13T21:03:02.378Z,95.64
2022-10-13T21:05:32.605Z,95.50
2022-10-13T21:08:05.721Z,95.80
2022-10-13T21:10:38.274Z,96.19
2022-10-13T21:13:10.834Z,96.27
2022-10-13T21:15:45.911Z,96.25
2022-10-13T21:18:17.265Z,96.32
2022-10-13T21:20:47.057Z,96.27
2022-10-13T21:23:17.445Z,96.41
2022-10-13T21:25:46.191Z,96.56
2022-10-13T21:28:17.125Z,96.59
2022-10-13T21:30:47.694Z,96.62
2022-10-13T21:33:16.111Z,96.92
2022-10-13T21:35:46.715Z,96.85
2022-10-13T21:38:18.587Z,96.87
2022-10-13T21:40:52.989Z,96.86
2022-10-13T21:43:24.456Z,96.85
2022-10-13T21:45:56.737Z,96.78
2022-10-13T21:48:26.327Z,96.96
2022-10-13T21:50:54.522Z,97.06
2022-10-13T21:53:24.431Z,96.96
2022-10-13T21:55:56.461Z,97.13
2022-10-13T21:58:34.390Z,97.08
2022-10-13T22:01:04.846Z,97.23
2022-10-13T22:03:36.769Z,97.32
2022-10-13T22:06:17.468Z,97.35
2022-10-13T22:09:00.467Z,97.45
2022-10-13T22:11:38.853Z,97.40
2022-10-13T22:14:16.417Z,97.38
2022-10-13T22:16:49.223Z,97.20
2022-10-13T22:19:23.536Z,97.27
2022-10-13T22:21:57.482Z,97.42
2022-10-13T22:24:30.090Z,97.69
2022-10-13T22:26:58.505Z,97.83
2022-10-13T22:29:27.644Z,97.99
2022-10-13T22:32:06.190Z,97.97
2022-10-13T22:34:43.342Z,98.35
2022-10-13T22:37:12.637Z,98.44
2022-10-13T22:39:43.081Z,98.35
2022-10-13T22:42:12.503Z,98.28
2022-10-13T22:44:42.326Z,98.49
2022-10-13T22:47:12.431Z,98.58
2022-10-13T22:49:47.021Z,98.66
2022-10-13T22:52:18.481Z,98.58
2022-10-13T22:54:47.298Z,98.61
2022-10-13T22:57:21.651Z,98.72
2022-10-13T22:59:52.036Z,98.59
2022-10-13T23:02:25.704Z,98.59
2022-10-13T23:04:57.494Z,98.51
2022-10-13T23:07:26.848Z,98.39
2022-10-13T23:09:57.957Z,98.36
2022-10-13T23:12:31.392Z,98.38
2022-10-13T23:15:00.625Z,98.38
2022-10-13T23:17:31.362Z,98.32
2022-10-13T23:20:00.955Z,98.44
2022-10-13T23:22:31.965Z,98.35
2022-10-13T23:25:02.303Z,98.40
2022-10-13T23:27:31.579Z,98.38
2022-10-13T23:29:59.915Z,98.34
2022-10-13T23:32:29.466Z,98.43
2022-10-13T23:35:00.021Z,98.35
2022-10-13T23:37:36.764Z,98.46
2022-10-13T23:40:06.266Z,98.41
2022-10-13T23:42:34.815Z,98.44
2022-10-13T23:45:05.760Z,98.33
2022-10-13T23:47:35.902Z,98.33
2022-10-13T23:50:09.669Z,98.31
2022-10-13T23:52:41.297Z,98.37
2022-10-13T23:55:12.411Z,98.49
2022-10-13T23:57:40.447Z,98.49
